Time,TemperatureF,DewpointF,PressureIn,WindDirection,WindDirectionDegrees,WindSpeedMPH,WindSpeedGustMPH,Humidity,HourlyPrecipIn,Conditions,Clouds,dailyrainin,SoftwareType,DateUTC
2013-04-02 00:03:00,24.0,13.0,-100.00,SW,215,3.0,5.0,62,0.00,,,-99.99,,2013-04-02 04:03:00,
2013-04-02 00:13:00,25.0,13.0,-100.00,SW,220,4.0,7.0,58,0.00,,,-99.99,,2013-04-02 04:13:00,
2013-04-02 00:23:00,24.0,13.0,-100.00,SW,220,3.0,4.0,63,0.00,,,-99.99,,2013-04-02 04:23:00,
2013-04-02 00:33:00,25.0,13.0,-100.00,SW,220,4.0,9.0,61,0.00,,,-99.99,,2013-04-02 04:33:00,
2013-04-02 00:43:00,23.0,13.0,-100.00,SSW,205,0.0,4.0,65,0.00,,,-99.99,,2013-04-02 04:43:00,
2013-04-02 00:53:00,23.0,14.0,-100.00,SSW,210,1.0,2.0,66,0.00,,,-99.99,,2013-04-02 04:53:00,
2013-04-02 01:02:00,23.0,14.0,-100.00,SW,225,2.0,2.0,68,0.00,,,-99.99,,2013-04-02 05:02:00,
2013-04-02 01:12:00,23.0,14.0,-100.00,WSW,240,0.0,2.0,68,0.00,,,-99.99,,2013-04-02 05:12:00,
2013-04-02 01:22:00,23.0,14.0,-100.00,SW,215,2.0,2.0,69,0.00,,,-99.99,,2013-04-02 05:22:00,
2013-04-02 01:32:00,22.0,14.0,-100.00,SSW,205,0.0,2.0,70,0.00,,,-99.99,,2013-04-02 05:32:00,
2013-04-02 01:42:00,22.0,15.0,-100.00,SW,215,0.0,0.0,73,0.00,,,-99.99,,2013-04-02 05:42:00,
2013-04-02 01:52:00,22.0,15.0,-100.00,SSW,205,0.0,0.0,72,0.00,,,-99.99,,2013-04-02 05:52:00,
2013-04-02 02:02:00,22.0,15.0,-100.00,SW,220,0.0,1.0,72,0.00,,,-99.99,,2013-04-02 06:02:00,
2013-04-02 02:12:00,21.0,14.0,-100.00,East,80,0.0,1.0,74,0.00,,,-99.99,,2013-04-02 06:12:00,
2013-04-02 02:22:00,21.0,14.0,-100.00,East,80,0.0,1.0,74,0.00,,,-99.99,,2013-04-02 06:22:00,
2013-04-02 02:32:00,21.0,17.0,-100.00,West,260,0.0,1.0,82,0.00,,,-99.99,,2013-04-02 06:32:00,
2013-04-02 02:42:00,21.0,17.0,-100.00,WSW,250,0.0,0.0,84,0.00,,,-99.99,,2013-04-02 06:42:00,
2013-04-02 02:52:00,20.0,17.0,-100.00,SW,225,1.0,1.0,85,0.00,,,-99.99,,2013-04-02 06:52:00,
2013-04-02 03:02:00,20.0,17.0,-100.00,ENE,70,0.0,1.0,85,0.00,,,-99.99,,2013-04-02 07:02:00,
2013-04-02 03:12:00,21.0,17.0,-100.00,SW,220,1.0,2.0,85,0.00,,,-99.99,,2013-04-02 07:12:00,
2013-04-02 03:22:00,21.0,17.0,-100.00,SW,215,0.0,2.0,83,0.00,,,-99.99,,2013-04-02 07:22:00,
2013-04-02 03:32:00,20.0,16.0,-100.00,SW,220,0.0,2.0,82,0.00,,,-99.99,,2013-04-02 07:32:00,
2013-04-02 03:42:00,20.0,16.0,-100.00,SW,225,0.0,1.0,83,0.00,,,-99.99,,2013-04-02 07:42:00,
2013-04-02 03:52:00,21.0,16.0,-100.00,SW,230,4.0,4.0,82,0.00,,,-99.99,,2013-04-02 07:52:00,
2013-04-02 04:02:00,21.0,16.0,-100.00,SW,220,2.0,3.0,82,0.00,,,-99.99,,2013-04-02 08:02:00,
2013-04-02 04:13:00,22.0,17.0,-100.00,SW,220,3.0,6.0,77,0.00,,,-99.99,,2013-04-02 08:13:00,
2013-04-02 04:22:00,21.0,16.0,-100.00,SW,215,3.0,4.0,80,0.00,,,-99.99,,2013-04-02 08:22:00,
2013-04-02 04:32:00,21.0,17.0,-100.00,SSW,210,5.0,6.0,83,0.00,,,-99.99,,2013-04-02 08:32:00,
2013-04-02 04:42:00,22.0,17.0,-100.00,SW,215,4.0,6.0,83,0.00,,,-99.99,,2013-04-02 08:42:00,
2013-04-02 04:52:00,23.0,17.0,-100.00,SW,215,6.0,8.0,77,0.00,,,-99.99,,2013-04-02 08:52:00,
2013-04-02 05:02:00,23.0,16.0,-100.00,SW,215,6.0,7.0,73,0.00,,,-99.99,,2013-04-02 09:02:00,
2013-04-02 05:12:00,23.0,16.0,-100.00,SW,215,5.0,6.0,74,0.00,,,-99.99,,2013-04-02 09:12:00,
2013-04-02 05:22:00,23.0,16.0,-100.00,SW,215,6.0,10.0,75,0.00,,,-99.99,,2013-04-02 09:22:00,
2013-04-02 05:32:00,23.0,16.0,-100.00,SW,230,3.0,8.0,74,0.00,,,-99.99,,2013-04-02 09:32:00,
2013-04-02 05:43:00,22.0,15.0,-100.00,SW,230,1.0,4.0,74,0.00,,,-99.99,,2013-04-02 09:43:00,
2013-04-02 05:52:00,22.0,16.0,-100.00,SW,220,1.0,2.0,76,0.00,,,-99.99,,2013-04-02 09:52:00,
2013-04-02 06:03:00,23.0,17.0,-100.00,SW,220,3.0,4.0,77,0.00,,,-99.99,,2013-04-02 10:03:00,
2013-04-02 06:13:00,23.0,17.0,-100.00,SW,220,3.0,4.0,77,0.00,,,-99.99,,2013-04-02 10:13:00,
2013-04-02 06:23:00,21.0,17.0,-100.00,SSW,210,4.0,6.0,81,0.00,,,-99.99,,2013-04-02 10:23:00,
2013-04-02 06:33:00,22.0,18.0,-100.00,SW,215,6.0,7.0,85,0.00,,,-99.99,,2013-04-02 10:33:00,
2013-04-02 06:42:00,21.0,18.0,-100.00,SW,220,4.0,7.0,85,0.00,,,-99.99,,2013-04-02 10:42:00,
2013-04-02 06:53:00,22.0,18.0,-100.00,SW,225,4.0,6.0,85,0.00,,,-99.99,,2013-04-02 10:53:00,
2013-04-02 07:02:00,23.0,19.0,-100.00,SW,220,4.0,7.0,85,0.00,,,-99.99,,2013-04-02 11:02:00,
2013-04-02 07:12:00,23.0,19.0,-100.00,SW,220,6.0,7.0,85,0.00,,,-99.99,,2013-04-02 11:12:00,
2013-04-02 07:22:00,23.0,20.0,-100.00,SW,220,6.0,7.0,86,0.00,,,-99.99,,2013-04-02 11:22:00,
2013-04-02 07:33:00,23.0,20.0,-100.00,SW,220,6.0,8.0,86,0.00,,,-99.99,,2013-04-02 11:33:00,
2013-04-02 07:43:00,24.0,20.0,-100.00,SW,220,6.0,9.0,86,0.00,,,-99.99,,2013-04-02 11:43:00,
2013-04-02 07:52:00,23.0,19.0,-100.00,SW,225,5.0,7.0,86,0.00,,,-99.99,,2013-04-02 11:52:00,
2013-04-02 08:02:00,23.0,20.0,-100.00,SW,225,3.0,7.0,86,0.00,,,-99.99,,2013-04-02 12:02:00,
2013-04-02 08:12:00,23.0,19.0,-100.00,SW,235,4.0,6.0,87,0.00,,,-99.99,,2013-04-02 12:12:00,
2013-04-02 08:23:00,24.0,20.0,-100.00,SW,230,4.0,6.0,86,0.00,,,-99.99,,2013-04-02 12:23:00,
2013-04-02 08:32:00,24.0,21.0,-100.00,SW,230,4.0,6.0,86,0.00,,,-99.99,,2013-04-02 12:32:00,
2013-04-02 08:42:00,25.0,22.0,-100.00,SW,235,6.0,7.0,85,0.00,,,-99.99,,2013-04-02 12:42:00,
2013-04-02 08:52:00,26.0,22.0,-100.00,SW,235,6.0,9.0,83,0.00,,,-99.99,,2013-04-02 12:52:00,
2013-04-02 09:02:00,27.0,22.0,-100.00,SW,230,4.0,7.0,82,0.00,,,-99.99,,2013-04-02 13:02:00,
2013-04-02 09:12:00,27.0,22.0,-100.00,SW,225,6.0,7.0,80,0.00,,,-99.99,,2013-04-02 13:12:00,
2013-04-02 09:22:00,28.0,22.0,-100.00,WSW,245,6.0,9.0,78,0.00,,,-99.99,,2013-04-02 13:22:00,
2013-04-02 09:33:00,29.0,22.0,-100.00,WSW,245,6.0,9.0,75,0.00,,,-99.99,,2013-04-02 13:33:00,
2013-04-02 09:42:00,29.0,22.0,-100.00,SW,230,7.0,9.0,73,0.00,,,-99.99,,2013-04-02 13:42:00,
2013-04-02 09:52:00,30.0,22.0,-100.00,WSW,245,6.0,9.0,70,0.00,,,-99.99,,2013-04-02 13:52:00,
2013-04-02 10:02:00,31.0,17.0,-100.00,WSW,250,4.0,7.0,57,0.00,,,-99.99,,2013-04-02 14:02:00,
2013-04-02 10:12:00,31.0,18.0,-100.00,SW,220,6.0,7.0,58,0.00,,,-99.99,,2013-04-02 14:12:00,
2013-04-02 10:23:00,31.0,14.0,-100.00,WSW,240,7.0,11.0,48,0.00,,,-99.99,,2013-04-02 14:23:00,
2013-04-02 10:32:00,33.0,15.0,-100.00,WSW,250,6.0,10.0,48,0.00,,,-99.99,,2013-04-02 14:32:00,
2013-04-02 10:42:00,33.0,13.0,-100.00,SW,225,4.0,12.0,43,0.00,,,-99.99,,2013-04-02 14:42:00,
2013-04-02 10:52:00,33.0,12.0,-100.00,SW,235,9.0,13.0,41,0.00,,,-99.99,,2013-04-02 14:52:00,
2013-04-02 11:02:00,34.0,13.0,-100.00,WSW,240,11.0,16.0,42,0.00,,,-99.99,,2013-04-02 15:02:00,
2013-04-02 11:11:00,34.0,13.0,-100.00,SW,235,9.0,14.0,41,0.00,,,-99.99,,2013-04-02 15:11:00,
2013-04-02 11:22:00,34.0,13.0,-100.00,SW,225,9.0,15.0,41,0.00,,,-99.99,,2013-04-02 15:22:00,
2013-04-02 11:33:00,34.0,13.0,-100.00,WSW,245,12.0,17.0,40,0.00,,,-99.99,,2013-04-02 15:33:00,
2013-04-02 11:43:00,35.0,12.0,-100.00,SW,225,9.0,17.0,39,0.00,,,-99.99,,2013-04-02 15:43:00,
2013-04-02 11:55:00,35.0,10.0,-100.00,SW,220,11.0,19.0,34,0.00,,,-99.99,,2013-04-02 15:55:00,
2013-04-02 12:04:00,34.0,11.0,-100.00,WSW,240,12.0,16.0,37,0.00,,,-99.99,,2013-04-02 16:04:00,
2013-04-02 12:13:00,35.0,10.0,-100.00,WSW,240,11.0,22.0,34,0.00,,,-99.99,,2013-04-02 16:13:00,
2013-04-02 12:24:00,35.0,10.0,-100.00,WSW,245,13.0,17.0,35,0.00,,,-99.99,,2013-04-02 16:24:00,
2013-04-02 12:37:00,37.0,10.0,-100.00,WSW,245,16.0,19.0,32,0.00,,,-99.99,,2013-04-02 16:37:00,
2013-04-02 12:44:00,37.0,9.0,-100.00,SW,220,12.0,19.0,32,0.00,,,-99.99,,2013-04-02 16:44:00,
2013-04-02 12:53:00,38.0,11.0,-100.00,WSW,240,14.0,20.0,33,0.00,,,-99.99,,2013-04-02 16:53:00,
2013-04-02 13:05:00,37.0,10.0,-100.00,SW,225,12.0,19.0,31,0.00,,,-99.99,,2013-04-02 17:05:00,
2013-04-02 13:13:00,36.0,9.0,-100.00,WSW,250,12.0,21.0,32,0.00,,,-99.99,,2013-04-02 17:13:00,
2013-04-02 13:25:00,37.0,9.0,-100.00,WSW,250,11.0,20.0,31,0.00,,,-99.99,,2013-04-02 17:25:00,
2013-04-02 13:35:00,37.0,10.0,-100.00,SW,220,15.0,22.0,32,0.00,,,-99.99,,2013-04-02 17:35:00,
2013-04-02 13:43:00,38.0,10.0,-100.00,SW,225,9.0,24.0,30,0.00,,,-99.99,,2013-04-02 17:43:00,
2013-04-02 13:54:00,38.0,10.0,-100.00,WSW,250,12.0,21.0,30,0.00,,,-99.99,,2013-04-02 17:54:00,
2013-04-02 14:04:00,39.0,11.0,-100.00,SW,220,14.0,21.0,31,0.00,,,-99.99,,2013-04-02 18:04:00,
2013-04-02 14:12:00,38.0,10.0,-100.00,SW,215,15.0,23.0,30,0.00,,,-99.99,,2013-04-02 18:12:00,
2013-04-02 14:23:00,39.0,10.0,-100.00,SW,235,14.0,21.0,29,0.00,,,-99.99,,2013-04-02 18:23:00,
2013-04-02 14:34:00,39.0,9.0,-100.00,SW,235,14.0,19.0,27,0.00,,,-99.99,,2013-04-02 18:34:00,
2013-04-02 14:43:00,38.0,9.0,-100.00,WSW,245,12.0,19.0,29,0.00,,,-99.99,,2013-04-02 18:43:00,
2013-04-02 14:54:00,40.0,7.0,-100.00,SW,230,15.0,21.0,25,0.00,,,-99.99,,2013-04-02 18:54:00,
2013-04-02 15:03:00,40.0,5.0,-100.00,SW,225,13.0,21.0,23,0.00,,,-99.99,,2013-04-02 19:03:00,
2013-04-02 15:13:00,40.0,7.0,-100.00,WSW,255,11.0,20.0,24,0.00,,,-99.99,,2013-04-02 19:13:00,
2013-04-02 15:23:00,42.0,7.0,-100.00,SW,220,11.0,24.0,23,0.00,,,-99.99,,2013-04-02 19:23:00,
2013-04-02 15:34:00,42.0,6.0,-100.00,SW,230,15.0,24.0,22,0.00,,,-99.99,,2013-04-02 19:34:00,
2013-04-02 15:45:00,40.0,6.0,-100.00,WSW,245,14.0,22.0,24,0.00,,,-99.99,,2013-04-02 19:45:00,
2013-04-02 16:03:00,42.0,7.0,-100.00,WSW,240,19.0,25.0,23,0.00,,,-99.99,,2013-04-02 20:03:00,
2013-04-02 16:13:00,41.0,6.0,-100.00,SW,235,15.0,21.0,23,0.00,,,-99.99,,2013-04-02 20:13:00,
2013-04-02 16:22:00,42.0,7.0,-100.00,SW,235,16.0,25.0,22,0.00,,,-99.99,,2013-04-02 20:22:00,
2013-04-02 16:33:00,42.0,6.0,-100.00,WSW,245,15.0,21.0,22,0.00,,,-99.99,,2013-04-02 20:33:00,
2013-04-02 16:44:00,41.0,5.0,-100.00,WSW,245,11.0,23.0,21,0.00,,,-99.99,,2013-04-02 20:44:00,
2013-04-02 16:53:00,42.0,7.0,-100.00,WSW,250,13.0,24.0,22,0.00,,,-99.99,,2013-04-02 20:53:00,
2013-04-02 17:04:00,42.0,6.0,-100.00,SW,225,16.0,23.0,21,0.00,,,-99.99,,2013-04-02 21:04:00,
2013-04-02 17:13:00,42.0,6.0,-100.00,SW,235,17.0,24.0,22,0.00,,,-99.99,,2013-04-02 21:13:00,
2013-04-02 17:23:00,42.0,6.0,-100.00,WSW,255,12.0,22.0,22,0.00,,,-99.99,,2013-04-02 21:23:00,
2013-04-02 17:34:00,42.0,5.0,-100.00,WSW,240,16.0,25.0,21,0.00,,,-99.99,,2013-04-02 21:34:00,
2013-04-02 17:44:00,41.0,5.0,-100.00,WSW,240,10.0,27.0,22,0.00,,,-99.99,,2013-04-02 21:44:00,
2013-04-02 17:54:00,41.0,4.0,-100.00,WSW,245,12.0,25.0,21,0.00,,,-99.99,,2013-04-02 21:54:00,
2013-04-02 18:04:00,40.0,4.0,-100.00,WSW,240,15.0,24.0,20,0.00,,,-99.99,,2013-04-02 22:04:00,
2013-04-02 18:14:00,41.0,4.0,-100.00,WSW,240,16.0,23.0,21,0.00,,,-99.99,,2013-04-02 22:14:00,
2013-04-02 18:24:00,40.0,3.0,-100.00,WSW,240,19.0,24.0,20,0.00,,,-99.99,,2013-04-02 22:24:00,
2013-04-02 18:33:00,40.0,3.0,-100.00,WSW,240,19.0,24.0,20,0.00,,,-99.99,,2013-04-02 22:33:00,
2013-04-02 18:43:00,39.0,3.0,-100.00,WSW,240,17.0,27.0,21,0.00,,,-99.99,,2013-04-02 22:43:00,
2013-04-02 18:53:00,39.0,4.0,-100.00,WSW,240,16.0,24.0,22,0.00,,,-99.99,,2013-04-02 22:53:00,
2013-04-02 19:03:00,39.0,4.0,-100.00,WSW,240,16.0,24.0,22,0.00,,,-99.99,,2013-04-02 23:03:00,
2013-04-02 19:13:00,38.0,4.0,-100.00,WSW,250,17.0,25.0,23,0.00,,,-99.99,,2013-04-02 23:13:00,
2013-04-02 19:23:00,38.0,5.0,-100.00,WSW,245,16.0,23.0,25,0.00,,,-99.99,,2013-04-02 23:23:00,
2013-04-02 19:35:00,38.0,6.0,-100.00,WSW,250,15.0,23.0,26,0.00,,,-99.99,,2013-04-02 23:35:00,
2013-04-02 19:43:00,37.0,4.0,-100.00,WSW,245,15.0,23.0,25,0.00,,,-99.99,,2013-04-02 23:43:00,
2013-04-02 19:52:00,37.0,5.0,-100.00,WSW,250,13.0,21.0,25,0.00,,,-99.99,,2013-04-02 23:52:00,
2013-04-02 20:04:00,36.0,4.0,-100.00,WSW,250,14.0,21.0,25,0.00,,,-99.99,,2013-04-03 00:04:00,
2013-04-02 20:13:00,35.0,3.0,-100.00,WSW,240,13.0,21.0,25,0.00,,,-99.99,,2013-04-03 00:13:00,
2013-04-02 20:24:00,34.0,5.0,-100.00,WSW,250,11.0,17.0,28,0.00,,,-99.99,,2013-04-03 00:24:00,
2013-04-02 20:34:00,33.0,5.0,-100.00,WSW,250,10.0,13.0,29,0.00,,,-99.99,,2013-04-03 00:34:00,
2013-04-02 20:47:00,33.0,5.0,-100.00,WSW,250,10.0,13.0,29,0.00,,,-99.99,,2013-04-03 00:47:00,
2013-04-02 20:53:00,32.0,5.0,-100.00,West,260,6.0,11.0,31,0.00,,,-99.99,,2013-04-03 00:53:00,
2013-04-02 21:04:00,32.0,5.0,-100.00,WSW,255,7.0,12.0,30,0.00,,,-99.99,,2013-04-03 01:04:00,
2013-04-02 21:12:00,32.0,5.0,-100.00,West,260,7.0,12.0,32,0.00,,,-99.99,,2013-04-03 01:12:00,
2013-04-02 21:23:00,32.0,6.0,-100.00,West,260,9.0,12.0,32,0.00,,,-99.99,,2013-04-03 01:23:00,
2013-04-02 21:33:00,32.0,5.0,-100.00,West,270,7.0,12.0,31,0.00,,,-99.99,,2013-04-03 01:33:00,
2013-04-02 21:42:00,32.0,5.0,-100.00,West,265,7.0,11.0,31,0.00,,,-99.99,,2013-04-03 01:42:00,
2013-04-02 21:53:00,31.0,5.0,-100.00,West,275,7.0,10.0,32,0.00,,,-99.99,,2013-04-03 01:53:00,
2013-04-02 22:04:00,32.0,6.0,-100.00,West,270,7.0,11.0,32,0.00,,,-99.99,,2013-04-03 02:04:00,
2013-04-02 22:13:00,31.0,6.0,-100.00,West,270,6.0,12.0,34,0.00,,,-99.99,,2013-04-03 02:13:00,
2013-04-02 22:24:00,31.0,7.0,-100.00,West,270,7.0,11.0,36,0.00,,,-99.99,,2013-04-03 02:24:00,
2013-04-02 22:34:00,31.0,8.0,-100.00,West,265,6.0,9.0,37,0.00,,,-99.99,,2013-04-03 02:34:00,
2013-04-02 22:43:00,31.0,8.0,-100.00,West,270,6.0,9.0,38,0.00,,,-99.99,,2013-04-03 02:43:00,
2013-04-02 22:52:00,30.0,9.0,-100.00,West,270,7.0,9.0,39,0.00,,,-99.99,,2013-04-03 02:52:00,
2013-04-02 23:06:00,30.0,9.0,-100.00,West,265,7.0,9.0,39,0.00,,,-99.99,,2013-04-03 03:06:00,
2013-04-02 23:14:00,30.0,9.0,-100.00,West,260,7.0,9.0,42,0.00,,,-99.99,,2013-04-03 03:14:00,
2013-04-02 23:23:00,29.0,10.0,-100.00,West,260,6.0,9.0,43,0.00,,,-99.99,,2013-04-03 03:23:00,
2013-04-02 23:38:00,28.0,9.0,-100.00,WSW,250,6.0,7.0,45,0.00,,,-99.99,,2013-04-03 03:38:00,
2013-04-02 23:44:00,26.0,11.0,-100.00,WSW,245,4.0,6.0,52,0.00,,,-99.99,,2013-04-03 03:44:00,
2013-04-02 23:53:00,27.0,11.0,-100.00,WSW,245,3.0,5.0,50,0.00,,,-99.99,,2013-04-03 03:53:00,